sensor_id;sensor_type;location;lat;lon;timestamp;pressure;altitude;pressure_sealevel;temperature;humidity
56737;BME280;42618;51.226;4.910;2022-07-10T00:00:03;49465.84;;;-146.94;65.67
56737;BME280;42618;51.226;4.910;2022-07-10T00:02:38;49495.75;;;-146.94;68.02
56737;BME280;42618;51.226;4.910;2022-07-10T00:05:06;49487.78;;;-146.94;69.10
56737;BME280;42618;51.226;4.910;2022-07-10T00:07:33;49489.78;;;-146.94;69.69
56737;BME280;42618;51.226;4.910;2022-07-10T00:10:00;49493.75;;;-146.94;69.89
56737;BME280;42618;51.226;4.910;2022-07-10T00:12:27;49485.78;;;-146.94;70.46
56737;BME280;42618;51.226;4.910;2022-07-10T00:14:54;49475.81;;;-146.94;70.33
56737;BME280;42618;51.226;4.910;2022-07-10T00:17:21;49483.81;;;-146.94;70.91
56737;BME280;42618;51.226;4.910;2022-07-10T00:19:47;49491.78;;;-146.94;70.93
56737;BME280;42618;51.226;4.910;2022-07-10T00:22:14;49495.75;;;-146.94;70.67
56737;BME280;42618;51.226;4.910;2022-07-10T00:24:41;49467.84;;;-146.94;70.41
56737;BME280;42618;51.226;4.910;2022-07-10T00:27:08;49483.81;;;-146.94;70.25
56737;BME280;42618;51.226;4.910;2022-07-10T00:29:34;49507.72;;;-146.94;70.36
56737;BME280;42618;51.226;4.910;2022-07-10T00:32:01;49509.72;;;-146.94;70.04
56737;BME280;42618;51.226;4.910;2022-07-10T00:34:28;49451.91;;;-146.94;70.37
56737;BME280;42618;51.226;4.910;2022-07-10T00:36:55;49511.72;;;-146.94;70.09
56737;BME280;42618;51.226;4.910;2022-07-10T00:39:21;49501.75;;;-146.94;69.90
56737;BME280;42618;51.226;4.910;2022-07-10T00:41:48;49487.78;;;-146.94;69.83
56737;BME280;42618;51.226;4.910;2022-07-10T00:44:15;49511.72;;;-146.94;69.57
56737;BME280;42618;51.226;4.910;2022-07-10T00:46:41;49465.84;;;-146.94;70.68
56737;BME280;42618;51.226;4.910;2022-07-10T00:49:08;49467.84;;;-146.94;70.53
56737;BME280;42618;51.226;4.910;2022-07-10T00:51:36;49461.88;;;-146.94;70.43
56737;BME280;42618;51.226;4.910;2022-07-10T00:54:04;49495.75;;;-146.94;71.81
56737;BME280;42618;51.226;4.910;2022-07-10T00:56:32;49481.81;;;-146.94;71.96
56737;BME280;42618;51.226;4.910;2022-07-10T00:58:59;49499.75;;;-146.94;72.03
56737;BME280;42618;51.226;4.910;2022-07-10T01:01:25;49487.78;;;-146.94;72.64
56737;BME280;42618;51.226;4.910;2022-07-10T01:03:52;49509.72;;;-146.94;72.67
56737;BME280;42618;51.226;4.910;2022-07-10T01:06:19;49511.72;;;-146.94;74.00
56737;BME280;42618;51.226;4.910;2022-07-10T01:08:46;49497.75;;;-146.94;73.43
56737;BME280;42618;51.226;4.910;2022-07-10T01:11:14;49497.75;;;-146.94;73.13
56737;BME280;42618;51.226;4.910;2022-07-10T01:13:42;49525.66;;;-146.94;74.77
56737;BME280;42618;51.226;4.910;2022-07-10T01:16:10;49519.69;;;-146.94;74.71
56737;BME280;42618;51.226;4.910;2022-07-10T01:18:37;49507.72;;;-146.94;74.88
56737;BME280;42618;51.226;4.910;2022-07-10T01:21:05;49521.69;;;-146.94;75.15
56737;BME280;42618;51.226;4.910;2022-07-10T01:23:32;49517.69;;;-146.94;74.03
56737;BME280;42618;51.226;4.910;2022-07-10T01:25:58;49515.69;;;-146.94;74.28
56737;BME280;42618;51.226;4.910;2022-07-10T01:28:27;49497.75;;;-146.94;73.59
56737;BME280;42618;51.226;4.910;2022-07-10T01:30:55;49491.78;;;-146.94;73.42
56737;BME280;42618;51.226;4.910;2022-07-10T01:33:22;49531.63;;;-146.94;73.85
56737;BME280;42618;51.226;4.910;2022-07-10T01:35:49;49527.66;;;-146.94;73.49
56737;BME280;42618;51.226;4.910;2022-07-10T01:38:15;49497.75;;;-146.94;73.80
56737;BME280;42618;51.226;4.910;2022-07-10T01:40:42;49547.59;;;-146.94;73.77
56737;BME280;42618;51.226;4.910;2022-07-10T01:43:08;49507.72;;;-146.94;73.39
56737;BME280;42618;51.226;4.910;2022-07-10T01:45:35;49487.78;;;-146.94;73.56
56737;BME280;42618;51.226;4.910;2022-07-10T01:48:02;49527.66;;;-146.94;73.71
56737;BME280;42618;51.226;4.910;2022-07-10T01:50:29;49501.75;;;-146.94;73.72
56737;BME280;42618;51.226;4.910;2022-07-10T01:52:55;49501.75;;;-146.94;73.36
56737;BME280;42618;51.226;4.910;2022-07-10T01:55:22;49507.72;;;-146.94;74.71
56737;BME280;42618;51.226;4.910;2022-07-10T01:57:49;49479.81;;;-146.94;73.79
56737;BME280;42618;51.226;4.910;2022-07-10T02:00:15;49531.63;;;-146.94;74.06
56737;BME280;42618;51.226;4.910;2022-07-10T02:02:42;49515.69;;;-146.94;75.08
56737;BME280;42618;51.226;4.910;2022-07-10T02:05:29;49503.72;;;-146.94;75.42
56737;BME280;42618;51.226;4.910;2022-07-10T02:07:56;49517.69;;;-146.94;75.45
56737;BME280;42618;51.226;4.910;2022-07-10T02:10:23;49507.72;;;-146.94;76.48
56737;BME280;42618;51.226;4.910;2022-07-10T02:12:49;49489.78;;;-146.94;77.11
56737;BME280;42618;51.226;4.910;2022-07-10T02:15:16;49481.81;;;-146.94;77.51
56737;BME280;42618;51.226;4.910;2022-07-10T02:17:43;49527.66;;;-146.94;77.83
56737;BME280;42618;51.226;4.910;2022-07-10T02:20:09;49495.75;;;-146.94;77.27
56737;BME280;42618;51.226;4.910;2022-07-10T02:22:37;49509.72;;;-146.94;76.69
56737;BME280;42618;51.226;4.910;2022-07-10T02:25:04;49515.69;;;-146.94;76.38
56737;BME280;42618;51.226;4.910;2022-07-10T02:27:31;49519.69;;;-146.94;76.43
56737;BME280;42618;51.226;4.910;2022-07-10T02:29:58;49511.72;;;-146.94;76.26
56737;BME280;42618;51.226;4.910;2022-07-10T02:32:24;49509.72;;;-146.94;76.44
56737;BME280;42618;51.226;4.910;2022-07-10T02:34:51;49499.75;;;-146.94;76.36
56737;BME280;42618;51.226;4.910;2022-07-10T02:37:18;49527.66;;;-146.94;76.52
56737;BME280;42618;51.226;4.910;2022-07-10T02:39:45;49535.63;;;-146.94;76.79
56737;BME280;42618;51.226;4.910;2022-07-10T02:42:12;49521.69;;;-146.94;76.66
56737;BME280;42618;51.226;4.910;2022-07-10T02:44:38;49523.66;;;-146.94;76.92
56737;BME280;42618;51.226;4.910;2022-07-10T02:47:05;49511.72;;;-146.94;77.30
56737;BME280;42618;51.226;4.910;2022-07-10T02:49:32;49551.56;;;-146.94;77.07
56737;BME280;42618;51.226;4.910;2022-07-10T02:51:59;49499.75;;;-146.94;76.26
56737;BME280;42618;51.226;4.910;2022-07-10T02:54:26;49513.69;;;-146.94;77.92
56737;BME280;42618;51.226;4.910;2022-07-10T02:56:53;49553.56;;;-146.94;77.99
56737;BME280;42618;51.226;4.910;2022-07-10T02:59:19;49523.66;;;-146.94;78.20
56737;BME280;42618;51.226;4.910;2022-07-10T03:01:46;49511.72;;;-146.94;78.24
56737;BME280;42618;51.226;4.910;2022-07-10T03:04:13;49505.72;;;-146.94;79.03
56737;BME280;42618;51.226;4.910;2022-07-10T03:06:40;49543.59;;;-146.94;78.78
56737;BME280;42618;51.226;4.910;2022-07-10T03:09:06;49537.63;;;-146.94;78.15
56737;BME280;42618;51.226;4.910;2022-07-10T03:11:33;49541.59;;;-146.94;78.46
56737;BME280;42618;51.226;4.910;2022-07-10T03:14:00;49511.72;;;-146.94;79.54
56737;BME280;42618;51.226;4.910;2022-07-10T03:16:26;49531.63;;;-146.94;79.08
56737;BME280;42618;51.226;4.910;2022-07-10T03:18:53;49527.66;;;-146.94;79.04
56737;BME280;42618;51.226;4.910;2022-07-10T03:21:20;49537.63;;;-146.94;79.43
56737;BME280;42618;51.226;4.910;2022-07-10T03:23:47;49509.72;;;-146.94;79.94
56737;BME280;42618;51.226;4.910;2022-07-10T03:26:13;49513.69;;;-146.94;80.31
56737;BME280;42618;51.226;4.910;2022-07-10T03:28:40;49527.66;;;-146.94;79.84
56737;BME280;42618;51.226;4.910;2022-07-10T03:31:08;49515.69;;;-146.94;80.04
56737;BME280;42618;51.226;4.910;2022-07-10T03:33:35;49499.75;;;-146.94;80.11
56737;BME280;42618;51.226;4.910;2022-07-10T03:36:01;49531.63;;;-146.94;80.27
56737;BME280;42618;51.226;4.910;2022-07-10T03:38:28;49511.72;;;-146.94;80.28
56737;BME280;42618;51.226;4.910;2022-07-10T03:40:55;49535.63;;;-146.94;79.58
56737;BME280;42618;51.226;4.910;2022-07-10T03:43:21;49523.66;;;-146.94;79.85
56737;BME280;42618;51.226;4.910;2022-07-10T03:45:48;49553.56;;;-146.94;80.34
56737;BME280;42618;51.226;4.910;2022-07-10T03:48:15;49525.66;;;-146.94;80.44
56737;BME280;42618;51.226;4.910;2022-07-10T03:50:41;49535.63;;;-146.94;81.16
56737;BME280;42618;51.226;4.910;2022-07-10T03:53:08;49543.59;;;-146.94;80.18
56737;BME280;42618;51.226;4.910;2022-07-10T03:55:35;49519.69;;;-146.94;80.71
56737;BME280;42618;51.226;4.910;2022-07-10T03:58:02;49523.66;;;-146.94;81.44
56737;BME280;42618;51.226;4.910;2022-07-10T04:00:31;49557.56;;;-146.94;80.89
56737;BME280;42618;51.226;4.910;2022-07-10T04:03:01;49519.69;;;-146.94;81.58
56737;BME280;42618;51.226;4.910;2022-07-10T04:05:28;49505.72;;;-146.94;81.24
56737;BME280;42618;51.226;4.910;2022-07-10T04:07:56;49523.66;;;-146.94;80.50
56737;BME280;42618;51.226;4.910;2022-07-10T04:10:24;49507.72;;;-146.94;80.64
56737;BME280;42618;51.226;4.910;2022-07-10T04:12:51;49535.63;;;-146.94;80.77
56737;BME280;42618;51.226;4.910;2022-07-10T04:15:18;49527.66;;;-146.94;80.62
56737;BME280;42618;51.226;4.910;2022-07-10T04:17:46;49505.72;;;-146.94;79.94
56737;BME280;42618;51.226;4.910;2022-07-10T04:20:13;49543.59;;;-146.94;79.58
56737;BME280;42618;51.226;4.910;2022-07-10T04:22:40;49519.69;;;-146.94;79.58
56737;BME280;42618;51.226;4.910;2022-07-10T04:25:07;49519.69;;;-146.94;79.13
56737;BME280;42618;51.226;4.910;2022-07-10T04:27:34;49513.69;;;-146.94;79.04
56737;BME280;42618;51.226;4.910;2022-07-10T04:30:02;49529.66;;;-146.94;79.10
56737;BME280;42618;51.226;4.910;2022-07-10T04:32:29;49555.56;;;-146.94;78.32
56737;BME280;42618;51.226;4.910;2022-07-10T04:34:56;49535.63;;;-146.94;77.95
56737;BME280;42618;51.226;4.910;2022-07-10T04:37:23;49493.75;;;-146.94;78.32
56737;BME280;42618;51.226;4.910;2022-07-10T04:39:50;49543.59;;;-146.94;77.86
56737;BME280;42618;51.226;4.910;2022-07-10T04:42:24;49521.69;;;-146.94;78.29
56737;BME280;42618;51.226;4.910;2022-07-10T04:44:50;49531.63;;;-146.94;77.72
56737;BME280;42618;51.226;4.910;2022-07-10T04:47:17;49517.69;;;-146.94;77.53
56737;BME280;42618;51.226;4.910;2022-07-10T04:49:44;49529.66;;;-146.94;76.92
56737;BME280;42618;51.226;4.910;2022-07-10T04:52:11;49515.69;;;-146.94;77.59
56737;BME280;42618;51.226;4.910;2022-07-10T04:54:37;49539.63;;;-146.94;78.27
56737;BME280;42618;51.226;4.910;2022-07-10T04:57:04;49551.56;;;-146.94;77.63
56737;BME280;42618;51.226;4.910;2022-07-10T04:59:31;49527.66;;;-146.94;77.78
56737;BME280;42618;51.226;4.910;2022-07-10T05:01:57;49535.63;;;-146.94;78.11
56737;BME280;42618;51.226;4.910;2022-07-10T05:04:24;49539.63;;;-146.94;77.95
56737;BME280;42618;51.226;4.910;2022-07-10T05:06:51;49515.69;;;-146.94;77.74
56737;BME280;42618;51.226;4.910;2022-07-10T05:09:18;49491.78;;;-146.94;77.56
56737;BME280;42618;51.226;4.910;2022-07-10T05:11:46;49543.59;;;-146.94;78.06
56737;BME280;42618;51.226;4.910;2022-07-10T05:14:13;49523.66;;;-146.94;77.82
56737;BME280;42618;51.226;4.910;2022-07-10T05:16:40;49563.53;;;-146.94;78.01
56737;BME280;42618;51.226;4.910;2022-07-10T05:19:06;49547.59;;;-146.94;77.09
56737;BME280;42618;51.226;4.910;2022-07-10T05:21:33;49539.63;;;-146.94;77.85
56737;BME280;42618;51.226;4.910;2022-07-10T05:24:00;49527.66;;;-146.94;77.37
56737;BME280;42618;51.226;4.910;2022-07-10T05:26:27;49535.63;;;-146.94;77.62
56737;BME280;42618;51.226;4.910;2022-07-10T05:28:53;49529.66;;;-146.94;77.46
56737;BME280;42618;51.226;4.910;2022-07-10T05:31:20;49499.75;;;-146.94;76.54
56737;BME280;42618;51.226;4.910;2022-07-10T05:33:47;49541.59;;;-146.94;76.97
56737;BME280;42618;51.226;4.910;2022-07-10T05:36:13;49539.63;;;-146.94;77.20
56737;BME280;42618;51.226;4.910;2022-07-10T05:38:40;49467.84;;;-146.94;76.16
56737;BME280;42618;51.226;4.910;2022-07-10T05:41:07;49527.66;;;-146.94;76.04
56737;BME280;42618;51.226;4.910;2022-07-10T05:43:34;49489.78;;;-146.94;75.22
56737;BME280;42618;51.226;4.910;2022-07-10T05:46:01;49503.72;;;-146.94;74.92
56737;BME280;42618;51.226;4.910;2022-07-10T05:48:28;49495.75;;;-146.94;74.78
56737;BME280;42618;51.226;4.910;2022-07-10T05:50:54;49495.75;;;-146.94;74.68
56737;BME280;42618;51.226;4.910;2022-07-10T05:53:41;49481.81;;;-146.94;74.93
56737;BME280;42618;51.226;4.910;2022-07-10T05:56:08;49515.69;;;-146.94;74.41
56737;BME280;42618;51.226;4.910;2022-07-10T05:58:35;49495.75;;;-146.94;74.62
56737;BME280;42618;51.226;4.910;2022-07-10T06:01:02;49519.69;;;-146.94;74.81
56737;BME280;42618;51.226;4.910;2022-07-10T06:03:29;49489.78;;;-146.94;74.74
56737;BME280;42618;51.226;4.910;2022-07-10T06:05:56;49495.75;;;-146.94;74.45
56737;BME280;42618;51.226;4.910;2022-07-10T06:08:22;49487.78;;;-146.94;74.15
56737;BME280;42618;51.226;4.910;2022-07-10T06:10:49;49491.78;;;-146.94;74.11
56737;BME280;42618;51.226;4.910;2022-07-10T06:13:16;49501.75;;;-146.94;72.71
56737;BME280;42618;51.226;4.910;2022-07-10T06:15:42;49489.78;;;-146.94;72.39
56737;BME280;42618;51.226;4.910;2022-07-10T06:18:09;49495.75;;;-146.94;71.94
56737;BME280;42618;51.226;4.910;2022-07-10T06:20:36;49475.81;;;-146.94;71.44
56737;BME280;42618;51.226;4.910;2022-07-10T06:23:02;49495.75;;;-146.94;70.71
56737;BME280;42618;51.226;4.910;2022-07-10T06:25:29;49489.78;;;-146.94;70.43
56737;BME280;42618;51.226;4.910;2022-07-10T06:27:56;49513.69;;;-146.94;69.96
56737;BME280;42618;51.226;4.910;2022-07-10T06:30:22;49503.72;;;-146.94;70.00
56737;BME280;42618;51.226;4.910;2022-07-10T06:32:49;49483.81;;;-146.94;69.60
56737;BME280;42618;51.226;4.910;2022-07-10T06:35:16;49503.72;;;-146.94;70.28
56737;BME280;42618;51.226;4.910;2022-07-10T06:37:43;49483.81;;;-146.94;70.07
56737;BME280;42618;51.226;4.910;2022-07-10T06:40:12;49501.75;;;-146.94;70.30
56737;BME280;42618;51.226;4.910;2022-07-10T06:42:41;49477.81;;;-146.94;70.43
56737;BME280;42618;51.226;4.910;2022-07-10T06:45:11;49527.66;;;-146.94;69.81
56737;BME280;42618;51.226;4.910;2022-07-10T06:47:38;49467.84;;;-146.94;68.61
56737;BME280;42618;51.226;4.910;2022-07-10T06:50:28;49487.78;;;-146.94;68.13
56737;BME280;42618;51.226;4.910;2022-07-10T06:52:57;49491.78;;;-146.94;67.79
56737;BME280;42618;51.226;4.910;2022-07-10T06:55:25;49483.81;;;-146.94;67.81
56737;BME280;42618;51.226;4.910;2022-07-10T06:57:52;49479.81;;;-146.94;67.64
56737;BME280;42618;51.226;4.910;2022-07-10T07:00:20;49483.81;;;-146.94;66.92
56737;BME280;42618;51.226;4.910;2022-07-10T07:02:47;49495.75;;;-146.94;65.80
56737;BME280;42618;51.226;4.910;2022-07-10T07:05:14;49469.84;;;-146.94;66.08
56737;BME280;42618;51.226;4.910;2022-07-10T07:07:41;49475.81;;;-146.94;63.90
56737;BME280;42618;51.226;4.910;2022-07-10T07:10:09;49503.72;;;-146.94;63.98
56737;BME280;42618;51.226;4.910;2022-07-10T07:12:36;49459.88;;;-146.94;64.12
56737;BME280;42618;51.226;4.910;2022-07-10T07:15:03;49435.97;;;-146.94;64.28
56737;BME280;42618;51.226;4.910;2022-07-10T07:17:30;49495.75;;;-146.94;64.06
56737;BME280;42618;51.226;4.910;2022-07-10T07:20:13;49467.84;;;-146.94;64.20
56737;BME280;42618;51.226;4.910;2022-07-10T07:22:58;49487.78;;;-146.94;63.89
56737;BME280;42618;51.226;4.910;2022-07-10T07:25:38;49461.88;;;-146.94;62.77
56737;BME280;42618;51.226;4.910;2022-07-10T07:28:08;49465.84;;;-146.94;62.59
56737;BME280;42618;51.226;4.910;2022-07-10T07:30:36;49420.00;;;-146.94;62.34
56737;BME280;42618;51.226;4.910;2022-07-10T07:33:04;49455.88;;;-146.94;61.26
56737;BME280;42618;51.226;4.910;2022-07-10T07:35:30;49465.84;;;-146.94;60.41
56737;BME280;42618;51.226;4.910;2022-07-10T07:37:57;49447.91;;;-146.94;59.34
56737;BME280;42618;51.226;4.910;2022-07-10T07:40:24;49441.94;;;-146.94;60.13
56737;BME280;42618;51.226;4.910;2022-07-10T07:42:53;49469.84;;;-146.94;59.84
56737;BME280;42618;51.226;4.910;2022-07-10T07:45:21;49445.94;;;-146.94;59.03
56737;BME280;42618;51.226;4.910;2022-07-10T07:47:52;49451.91;;;-146.94;58.47
56737;BME280;42618;51.226;4.910;2022-07-10T07:50:23;49455.88;;;-146.94;56.87
56737;BME280;42618;51.226;4.910;2022-07-10T07:52:52;49449.91;;;-146.94;55.02
56737;BME280;42618;51.226;4.910;2022-07-10T07:55:21;49416.03;;;-146.94;56.81
56737;BME280;42618;51.226;4.910;2022-07-10T07:57:50;49416.03;;;-146.94;54.71
56737;BME280;42618;51.226;4.910;2022-07-10T08:00:17;49441.94;;;-146.94;56.68
56737;BME280;42618;51.226;4.910;2022-07-10T08:02:44;49457.88;;;-146.94;54.69
56737;BME280;42618;51.226;4.910;2022-07-10T08:05:11;49447.91;;;-146.94;54.95
56737;BME280;42618;51.226;4.910;2022-07-10T08:07:42;49449.91;;;-146.94;55.49
56737;BME280;42618;51.226;4.910;2022-07-10T08:10:11;49471.84;;;-146.94;56.03
56737;BME280;42618;51.226;4.910;2022-07-10T08:12:38;49422.00;;;-146.94;56.75
56737;BME280;42618;51.226;4.910;2022-07-10T08:15:09;49487.78;;;-146.94;56.79
56737;BME280;42618;51.226;4.910;2022-07-10T08:17:37;49453.91;;;-146.94;55.88
56737;BME280;42618;51.226;4.910;2022-07-10T08:20:04;49459.88;;;-146.94;55.54
56737;BME280;42618;51.226;4.910;2022-07-10T08:22:32;49435.97;;;-146.94;55.93
56737;BME280;42618;51.226;4.910;2022-07-10T08:24:59;49439.94;;;-146.94;55.62
56737;BME280;42618;51.226;4.910;2022-07-10T08:27:26;49449.91;;;-146.94;56.33
56737;BME280;42618;51.226;4.910;2022-07-10T08:29:54;49467.84;;;-146.94;55.23
56737;BME280;42618;51.226;4.910;2022-07-10T08:32:21;49412.03;;;-146.94;54.58
56737;BME280;42618;51.226;4.910;2022-07-10T08:34:47;49431.97;;;-146.94;55.81
56737;BME280;42618;51.226;4.910;2022-07-10T08:37:15;49431.97;;;-146.94;55.45
56737;BME280;42618;51.226;4.910;2022-07-10T08:39:42;49453.91;;;-146.94;54.40
56737;BME280;42618;51.226;4.910;2022-07-10T08:42:10;49420.00;;;-146.94;54.24
56737;BME280;42618;51.226;4.910;2022-07-10T08:44:37;49435.97;;;-146.94;54.45
56737;BME280;42618;51.226;4.910;2022-07-10T08:47:04;49437.94;;;-146.94;54.47
56737;BME280;42618;51.226;4.910;2022-07-10T08:49:31;49400.06;;;-146.94;53.62
56737;BME280;42618;51.226;4.910;2022-07-10T08:52:00;49422.00;;;-146.94;54.22
56737;BME280;42618;51.226;4.910;2022-07-10T08:54:28;49431.97;;;-146.94;54.29
56737;BME280;42618;51.226;4.910;2022-07-10T08:56:57;49447.91;;;-146.94;54.09
56737;BME280;42618;51.226;4.910;2022-07-10T08:59:24;49404.06;;;-146.94;53.94
56737;BME280;42618;51.226;4.910;2022-07-10T09:01:57;49420.00;;;-146.94;53.78
56737;BME280;42618;51.226;4.910;2022-07-10T09:04:26;49471.84;;;-146.94;52.40
56737;BME280;42618;51.226;4.910;2022-07-10T09:06:54;49451.91;;;-146.94;53.00
56737;BME280;42618;51.226;4.910;2022-07-10T09:09:22;49410.03;;;-146.94;52.84
56737;BME280;42618;51.226;4.910;2022-07-10T09:11:56;49422.00;;;-146.94;52.71
56737;BME280;42618;51.226;4.910;2022-07-10T09:14:25;49424.00;;;-146.94;52.77
56737;BME280;42618;51.226;4.910;2022-07-10T09:17:01;49424.00;;;-146.94;52.81
56737;BME280;42618;51.226;4.910;2022-07-10T09:19:28;49420.00;;;-146.94;52.87
56737;BME280;42618;51.226;4.910;2022-07-10T09:22:05;49439.94;;;-146.94;52.34
56737;BME280;42618;51.226;4.910;2022-07-10T09:24:42;49392.09;;;-146.94;52.35
56737;BME280;42618;51.226;4.910;2022-07-10T09:27:11;49412.03;;;-146.94;52.53
56737;BME280;42618;51.226;4.910;2022-07-10T09:29:49;49429.97;;;-146.94;52.74
56737;BME280;42618;51.226;4.910;2022-07-10T09:32:18;49400.06;;;-146.94;53.95
56737;BME280;42618;51.226;4.910;2022-07-10T09:34:46;49388.13;;;-146.94;53.59
56737;BME280;42618;51.226;4.910;2022-07-10T09:37:29;49431.97;;;-146.94;54.79
56737;BME280;42618;51.226;4.910;2022-07-10T09:40:02;49420.00;;;-146.94;55.28
56737;BME280;42618;51.226;4.910;2022-07-10T09:42:34;49392.09;;;-146.94;54.95
56737;BME280;42618;51.226;4.910;2022-07-10T09:47:39;49459.88;;;-146.94;55.35
56737;BME280;42618;51.226;4.910;2022-07-10T09:52:58;49424.00;;;-146.94;53.53
56737;BME280;42618;51.226;4.910;2022-07-10T09:55:26;49433.97;;;-146.94;53.41
56737;BME280;42618;51.226;4.910;2022-07-10T09:57:58;49394.09;;;-146.94;53.65
56737;BME280;42618;51.226;4.910;2022-07-10T10:00:33;49443.94;;;-146.94;54.02
56737;BME280;42618;51.226;4.910;2022-07-10T10:03:05;49426.00;;;-146.94;53.24
56737;BME280;42618;51.226;4.910;2022-07-10T10:05:46;49412.03;;;-146.94;53.19
56737;BME280;42618;51.226;4.910;2022-07-10T10:08:27;49408.06;;;-146.94;54.18
56737;BME280;42618;51.226;4.910;2022-07-10T10:10:57;49392.09;;;-146.94;54.41
56737;BME280;42618;51.226;4.910;2022-07-10T10:13:26;49412.03;;;-146.94;53.72
56737;BME280;42618;51.226;4.910;2022-07-10T10:15:56;49441.94;;;-146.94;52.34
56737;BME280;42618;51.226;4.910;2022-07-10T10:18:25;49390.09;;;-146.94;52.98
56737;BME280;42618;51.226;4.910;2022-07-10T10:20:54;49388.13;;;-146.94;53.22
56737;BME280;42618;51.226;4.910;2022-07-10T10:23:25;49443.94;;;-146.94;52.56
56737;BME280;42618;51.226;4.910;2022-07-10T10:25:54;49427.97;;;-146.94;53.04
56737;BME280;42618;51.226;4.910;2022-07-10T10:28:22;49451.91;;;-146.94;52.63
56737;BME280;42618;51.226;4.910;2022-07-10T10:30:59;49416.03;;;-146.94;52.28
56737;BME280;42618;51.226;4.910;2022-07-10T10:36:03;49392.09;;;-146.94;53.11
56737;BME280;42618;51.226;4.910;2022-07-10T10:41:26;49392.09;;;-146.94;51.84
56737;BME280;42618;51.226;4.910;2022-07-10T10:44:19;49400.06;;;-146.94;51.54
56737;BME280;42618;51.226;4.910;2022-07-10T10:47:00;49396.09;;;-146.94;50.30
56737;BME280;42618;51.226;4.910;2022-07-10T10:50:07;49404.06;;;-146.94;50.89
56737;BME280;42618;51.226;4.910;2022-07-10T10:52:34;49400.06;;;-146.94;51.75
56737;BME280;42618;51.226;4.910;2022-07-10T10:55:02;49400.06;;;-146.94;50.59
56737;BME280;42618;51.226;4.910;2022-07-10T10:57:37;49410.03;;;-146.94;50.51
56737;BME280;42618;51.226;4.910;2022-07-10T11:00:12;49376.16;;;-146.94;49.55
56737;BME280;42618;51.226;4.910;2022-07-10T11:02:41;49394.09;;;-146.94;48.98
56737;BME280;42618;51.226;4.910;2022-07-10T11:07:56;49400.06;;;-146.94;47.59
56737;BME280;42618;51.226;4.910;2022-07-10T11:12:58;49408.06;;;-146.94;48.92
56737;BME280;42618;51.226;4.910;2022-07-10T11:15:25;49388.13;;;-146.94;48.37
56737;BME280;42618;51.226;4.910;2022-07-10T11:17:53;49382.13;;;-146.94;48.04
56737;BME280;42618;51.226;4.910;2022-07-10T11:20:20;49360.22;;;-146.94;48.44
56737;BME280;42618;51.226;4.910;2022-07-10T11:22:55;49384.13;;;-146.94;47.82
56737;BME280;42618;51.226;4.910;2022-07-10T11:25:54;49408.06;;;-146.94;48.05
56737;BME280;42618;51.226;4.910;2022-07-10T11:31:04;49408.06;;;-146.94;48.22
56737;BME280;42618;51.226;4.910;2022-07-10T11:33:39;49352.22;;;-146.94;46.69
56737;BME280;42618;51.226;4.910;2022-07-10T11:36:10;49376.16;;;-146.94;45.51
56737;BME280;42618;51.226;4.910;2022-07-10T11:38:41;49350.25;;;-146.94;47.57
56737;BME280;42618;51.226;4.910;2022-07-10T11:41:16;49372.16;;;-146.94;48.25
56737;BME280;42618;51.226;4.910;2022-07-10T11:43:56;49400.06;;;-146.94;48.79
56737;BME280;42618;51.226;4.910;2022-07-10T11:46:28;49378.16;;;-146.94;48.79
56737;BME280;42618;51.226;4.910;2022-07-10T11:48:55;49374.16;;;-146.94;48.43
56737;BME280;42618;51.226;4.910;2022-07-10T11:51:30;49360.22;;;-146.94;46.52
56737;BME280;42618;51.226;4.910;2022-07-10T11:54:01;49344.25;;;-146.94;46.54
56737;BME280;42618;51.226;4.910;2022-07-10T11:56:34;49350.25;;;-146.94;45.31
56737;BME280;42618;51.226;4.910;2022-07-10T11:59:03;49316.34;;;-146.94;45.52
56737;BME280;42618;51.226;4.910;2022-07-10T12:01:33;49384.13;;;-146.94;45.09
56737;BME280;42618;51.226;4.910;2022-07-10T12:04:04;49370.19;;;-146.94;45.82
56737;BME280;42618;51.226;4.910;2022-07-10T12:06:33;49392.09;;;-146.94;45.95
56737;BME280;42618;51.226;4.910;2022-07-10T12:09:21;49356.22;;;-146.94;46.95
56737;BME280;42618;51.226;4.910;2022-07-10T12:14:25;49362.19;;;-146.94;45.36
56737;BME280;42618;51.226;4.910;2022-07-10T12:16:53;49380.13;;;-146.94;46.25
56737;BME280;42618;51.226;4.910;2022-07-10T12:19:26;49356.22;;;-146.94;45.27
56737;BME280;42618;51.226;4.910;2022-07-10T12:21:54;49352.22;;;-146.94;44.67
56737;BME280;42618;51.226;4.910;2022-07-10T12:24:24;49356.22;;;-146.94;43.45
56737;BME280;42618;51.226;4.910;2022-07-10T12:26:51;49368.19;;;-146.94;42.67
56737;BME280;42618;51.226;4.910;2022-07-10T12:29:23;49352.22;;;-146.94;42.60
56737;BME280;42618;51.226;4.910;2022-07-10T12:31:55;49348.25;;;-146.94;43.34
56737;BME280;42618;51.226;4.910;2022-07-10T12:34:36;49362.19;;;-146.94;42.85
56737;BME280;42618;51.226;4.910;2022-07-10T12:37:08;49334.28;;;-146.94;43.13
56737;BME280;42618;51.226;4.910;2022-07-10T12:39:46;49332.31;;;-146.94;42.53
56737;BME280;42618;51.226;4.910;2022-07-10T12:42:24;49366.19;;;-146.94;43.26
56737;BME280;42618;51.226;4.910;2022-07-10T12:44:51;49326.31;;;-146.94;42.97
56737;BME280;42618;51.226;4.910;2022-07-10T12:47:20;49350.25;;;-146.94;43.09
56737;BME280;42618;51.226;4.910;2022-07-10T12:49:57;49384.13;;;-146.94;42.81
56737;BME280;42618;51.226;4.910;2022-07-10T12:52:25;49368.19;;;-146.94;43.55
56737;BME280;42618;51.226;4.910;2022-07-10T12:57:59;49336.28;;;-146.94;44.58
56737;BME280;42618;51.226;4.910;2022-07-10T13:00:32;49352.22;;;-146.94;43.17
56737;BME280;42618;51.226;4.910;2022-07-10T13:03:04;49344.25;;;-146.94;42.95
56737;BME280;42618;51.226;4.910;2022-07-10T13:05:32;49312.38;;;-146.94;43.34
56737;BME280;42618;51.226;4.910;2022-07-10T13:08:06;49328.31;;;-146.94;42.54
56737;BME280;42618;51.226;4.910;2022-07-10T13:10:34;49344.25;;;-146.94;43.03
56737;BME280;42618;51.226;4.910;2022-07-10T13:13:03;49316.34;;;-146.94;42.73